sensor_id;sensor_type;location;lat;lon;timestamp;P1;durP1;ratioP1;P2;durP2;ratioP2
17806;SDS011;9027;48.938;9.182;2022-11-20T00:01:13;11.60;;;8.07;;
17806;SDS011;9027;48.938;9.182;2022-11-20T00:02:47;12.40;;;8.53;;
17806;SDS011;9027;48.938;9.182;2022-11-20T00:04:18;9.73;;;8.40;;
17806;SDS011;9027;48.938;9.182;2022-11-20T00:05:49;12.43;;;7.60;;
17806;SDS011;9027;48.938;9.182;2022-11-20T00:07:20;12.87;;;8.67;;
17806;SDS011;9027;48.938;9.182;2022-11-20T00:08:53;12.60;;;8.33;;
17806;SDS011;9027;48.938;9.182;2022-11-20T00:10:26;10.67;;;8.27;;
17806;SDS011;9027;48.938;9.182;2022-11-20T00:11:59;11.90;;;8.23;;
17806;SDS011;9027;48.938;9.182;2022-11-20T00:13:31;10.07;;;7.77;;
17806;SDS011;9027;48.938;9.182;2022-11-20T00:15:03;12.97;;;8.50;;
17806;SDS011;9027;48.938;9.182;2022-11-20T00:16:36;10.93;;;7.80;;
17806;SDS011;9027;48.938;9.182;2022-11-20T00:18:07;11.57;;;8.40;;
17806;SDS011;9027;48.938;9.182;2022-11-20T00:19:38;10.20;;;7.93;;
17806;SDS011;9027;48.938;9.182;2022-11-20T00:21:11;12.23;;;7.97;;
17806;SDS011;9027;48.938;9.182;2022-11-20T00:22:43;12.23;;;8.30;;
17806;SDS011;9027;48.938;9.182;2022-11-20T00:24:15;11.70;;;8.00;;
17806;SDS011;9027;48.938;9.182;2022-11-20T00:25:47;10.97;;;7.93;;
17806;SDS011;9027;48.938;9.182;2022-11-20T00:27:20;11.03;;;8.07;;
17806;SDS011;9027;48.938;9.182;2022-11-20T00:28:52;11.90;;;8.20;;
17806;SDS011;9027;48.938;9.182;2022-11-20T00:30:25;10.80;;;8.17;;
17806;SDS011;9027;48.938;9.182;2022-11-20T00:31:56;9.50;;;7.90;;
17806;SDS011;9027;48.938;9.182;2022-11-20T00:33:28;10.30;;;8.27;;
17806;SDS011;9027;48.938;9.182;2022-11-20T00:34:59;13.70;;;8.33;;
17806;SDS011;9027;48.938;9.182;2022-11-20T00:36:32;12.07;;;8.80;;
17806;SDS011;9027;48.938;9.182;2022-11-20T00:38:05;11.00;;;8.47;;
17806;SDS011;9027;48.938;9.182;2022-11-20T00:39:36;14.00;;;9.27;;
17806;SDS011;9027;48.938;9.182;2022-11-20T00:41:09;13.70;;;8.47;;
17806;SDS011;9027;48.938;9.182;2022-11-20T00:42:43;11.30;;;8.57;;
17806;SDS011;9027;48.938;9.182;2022-11-20T00:44:14;13.73;;;9.07;;
17806;SDS011;9027;48.938;9.182;2022-11-20T00:45:46;15.20;;;9.07;;
17806;SDS011;9027;48.938;9.182;2022-11-20T00:47:18;11.67;;;8.57;;
17806;SDS011;9027;48.938;9.182;2022-11-20T00:48:50;12.33;;;9.70;;
17806;SDS011;9027;48.938;9.182;2022-11-20T00:50:22;16.00;;;10.77;;
17806;SDS011;9027;48.938;9.182;2022-11-20T00:51:53;14.03;;;10.17;;
17806;SDS011;9027;48.938;9.182;2022-11-20T00:53:26;16.93;;;9.93;;
17806;SDS011;9027;48.938;9.182;2022-11-20T00:54:58;15.33;;;10.10;;
17806;SDS011;9027;48.938;9.182;2022-11-20T00:56:30;15.70;;;9.83;;
17806;SDS011;9027;48.938;9.182;2022-11-20T00:58:03;17.80;;;10.10;;
17806;SDS011;9027;48.938;9.182;2022-11-20T00:59:34;15.03;;;10.13;;
17806;SDS011;9027;48.938;9.182;2022-11-20T01:01:07;14.97;;;10.00;;
17806;SDS011;9027;48.938;9.182;2022-11-20T01:02:45;15.00;;;10.00;;
17806;SDS011;9027;48.938;9.182;2022-11-20T01:04:17;14.00;;;10.03;;
17806;SDS011;9027;48.938;9.182;2022-11-20T01:05:51;16.40;;;10.70;;
17806;SDS011;9027;48.938;9.182;2022-11-20T01:07:22;16.73;;;10.23;;
17806;SDS011;9027;48.938;9.182;2022-11-20T01:08:55;14.13;;;10.17;;
17806;SDS011;9027;48.938;9.182;2022-11-20T01:10:28;16.43;;;10.53;;
17806;SDS011;9027;48.938;9.182;2022-11-20T01:11:59;14.67;;;9.30;;
17806;SDS011;9027;48.938;9.182;2022-11-20T01:13:32;12.53;;;8.50;;
17806;SDS011;9027;48.938;9.182;2022-11-20T01:15:09;13.67;;;9.57;;
17806;SDS011;9027;48.938;9.182;2022-11-20T01:16:41;14.70;;;9.90;;
17806;SDS011;9027;48.938;9.182;2022-11-20T01:18:15;15.10;;;10.07;;
17806;SDS011;9027;48.938;9.182;2022-11-20T01:19:48;12.90;;;9.30;;
17806;SDS011;9027;48.938;9.182;2022-11-20T01:21:21;17.07;;;10.43;;
17806;SDS011;9027;48.938;9.182;2022-11-20T01:22:56;14.50;;;9.57;;
17806;SDS011;9027;48.938;9.182;2022-11-20T01:24:28;14.40;;;9.87;;
17806;SDS011;9027;48.938;9.182;2022-11-20T01:26:01;15.67;;;10.47;;
17806;SDS011;9027;48.938;9.182;2022-11-20T01:27:32;14.23;;;10.00;;
17806;SDS011;9027;48.938;9.182;2022-11-20T01:29:06;20.07;;;10.80;;
17806;SDS011;9027;48.938;9.182;2022-11-20T01:30:38;15.53;;;10.93;;
17806;SDS011;9027;48.938;9.182;2022-11-20T01:32:09;14.80;;;10.37;;
17806;SDS011;9027;48.938;9.182;2022-11-20T01:33:41;16.83;;;10.60;;
17806;SDS011;9027;48.938;9.182;2022-11-20T01:35:13;18.33;;;10.97;;
17806;SDS011;9027;48.938;9.182;2022-11-20T01:36:46;18.70;;;11.67;;
17806;SDS011;9027;48.938;9.182;2022-11-20T01:38:19;17.90;;;10.57;;
17806;SDS011;9027;48.938;9.182;2022-11-20T01:39:52;19.43;;;12.50;;
17806;SDS011;9027;48.938;9.182;2022-11-20T01:41:27;18.07;;;11.90;;
17806;SDS011;9027;48.938;9.182;2022-11-20T01:43:19;19.97;;;12.00;;
17806;SDS011;9027;48.938;9.182;2022-11-20T01:44:53;15.73;;;11.20;;
17806;SDS011;9027;48.938;9.182;2022-11-20T01:46:28;15.73;;;10.57;;
17806;SDS011;9027;48.938;9.182;2022-11-20T01:47:58;14.43;;;9.90;;
17806;SDS011;9027;48.938;9.182;2022-11-20T01:49:32;14.27;;;9.70;;
17806;SDS011;9027;48.938;9.182;2022-11-20T01:51:12;13.47;;;9.70;;
17806;SDS011;9027;48.938;9.182;2022-11-20T01:52:49;13.00;;;9.33;;
17806;SDS011;9027;48.938;9.182;2022-11-20T01:54:27;12.13;;;9.33;;
17806;SDS011;9027;48.938;9.182;2022-11-20T01:56:02;14.33;;;10.10;;
17806;SDS011;9027;48.938;9.182;2022-11-20T01:57:39;16.43;;;9.83;;
17806;SDS011;9027;48.938;9.182;2022-11-20T01:59:12;12.07;;;9.50;;
17806;SDS011;9027;48.938;9.182;2022-11-20T02:00:48;16.60;;;9.97;;
17806;SDS011;9027;48.938;9.182;2022-11-20T02:02:20;15.63;;;10.33;;
17806;SDS011;9027;48.938;9.182;2022-11-20T02:03:52;17.83;;;10.90;;
17806;SDS011;9027;48.938;9.182;2022-11-20T02:05:27;16.60;;;9.93;;
17806;SDS011;9027;48.938;9.182;2022-11-20T02:07:02;20.03;;;13.37;;
17806;SDS011;9027;48.938;9.182;2022-11-20T02:08:36;24.43;;;14.47;;
17806;SDS011;9027;48.938;9.182;2022-11-20T02:10:09;23.13;;;13.17;;
17806;SDS011;9027;48.938;9.182;2022-11-20T02:11:41;18.43;;;12.60;;
17806;SDS011;9027;48.938;9.182;2022-11-20T02:13:13;16.93;;;11.57;;
17806;SDS011;9027;48.938;9.182;2022-11-20T02:15:03;18.13;;;12.00;;
17806;SDS011;9027;48.938;9.182;2022-11-20T02:16:36;19.70;;;11.50;;
17806;SDS011;9027;48.938;9.182;2022-11-20T02:18:10;17.80;;;11.70;;
17806;SDS011;9027;48.938;9.182;2022-11-20T02:19:43;16.53;;;11.27;;
17806;SDS011;9027;48.938;9.182;2022-11-20T02:21:24;18.07;;;11.60;;
17806;SDS011;9027;48.938;9.182;2022-11-20T02:22:59;20.43;;;12.67;;
17806;SDS011;9027;48.938;9.182;2022-11-20T02:24:36;19.03;;;11.90;;
17806;SDS011;9027;48.938;9.182;2022-11-20T02:26:09;17.70;;;11.87;;
17806;SDS011;9027;48.938;9.182;2022-11-20T02:27:43;19.10;;;12.00;;
17806;SDS011;9027;48.938;9.182;2022-11-20T02:29:15;18.50;;;12.10;;
17806;SDS011;9027;48.938;9.182;2022-11-20T02:30:49;17.40;;;11.23;;
17806;SDS011;9027;48.938;9.182;2022-11-20T02:32:22;16.10;;;11.20;;
17806;SDS011;9027;48.938;9.182;2022-11-20T02:33:56;15.80;;;10.83;;
17806;SDS011;9027;48.938;9.182;2022-11-20T02:35:42;14.73;;;10.77;;
17806;SDS011;9027;48.938;9.182;2022-11-20T02:37:15;14.87;;;11.00;;
17806;SDS011;9027;48.938;9.182;2022-11-20T02:38:47;15.60;;;11.20;;
17806;SDS011;9027;48.938;9.182;2022-11-20T02:40:21;16.00;;;11.07;;
17806;SDS011;9027;48.938;9.182;2022-11-20T02:41:53;15.30;;;11.50;;
17806;SDS011;9027;48.938;9.182;2022-11-20T02:43:26;15.10;;;11.20;;
17806;SDS011;9027;48.938;9.182;2022-11-20T02:44:58;16.33;;;11.13;;
17806;SDS011;9027;48.938;9.182;2022-11-20T02:46:30;14.77;;;10.27;;
17806;SDS011;9027;48.938;9.182;2022-11-20T02:48:02;15.80;;;10.63;;
17806;SDS011;9027;48.938;9.182;2022-11-20T02:49:34;14.13;;;10.93;;
17806;SDS011;9027;48.938;9.182;2022-11-20T02:51:06;15.37;;;11.00;;
17806;SDS011;9027;48.938;9.182;2022-11-20T02:52:37;14.80;;;10.87;;
17806;SDS011;9027;48.938;9.182;2022-11-20T02:54:09;14.37;;;10.03;;
17806;SDS011;9027;48.938;9.182;2022-11-20T02:55:42;14.07;;;9.83;;
17806;SDS011;9027;48.938;9.182;2022-11-20T02:57:13;16.67;;;11.13;;
17806;SDS011;9027;48.938;9.182;2022-11-20T02:58:45;16.47;;;10.40;;
17806;SDS011;9027;48.938;9.182;2022-11-20T03:00:17;15.13;;;10.80;;
17806;SDS011;9027;48.938;9.182;2022-11-20T03:01:48;14.00;;;9.90;;
17806;SDS011;9027;48.938;9.182;2022-11-20T03:03:20;14.33;;;10.60;;
17806;SDS011;9027;48.938;9.182;2022-11-20T03:04:51;13.90;;;9.90;;
17806;SDS011;9027;48.938;9.182;2022-11-20T03:06:23;19.83;;;10.67;;
17806;SDS011;9027;48.938;9.182;2022-11-20T03:07:55;14.93;;;10.20;;
17806;SDS011;9027;48.938;9.182;2022-11-20T03:09:25;16.63;;;10.37;;
17806;SDS011;9027;48.938;9.182;2022-11-20T03:11:02;16.73;;;10.83;;
17806;SDS011;9027;48.938;9.182;2022-11-20T03:12:36;15.17;;;11.13;;
17806;SDS011;9027;48.938;9.182;2022-11-20T03:14:07;16.83;;;11.40;;
17806;SDS011;9027;48.938;9.182;2022-11-20T03:15:38;16.77;;;11.03;;
17806;SDS011;9027;48.938;9.182;2022-11-20T03:17:10;15.03;;;10.63;;
17806;SDS011;9027;48.938;9.182;2022-11-20T03:18:42;14.67;;;10.37;;
17806;SDS011;9027;48.938;9.182;2022-11-20T03:20:15;15.63;;;10.67;;
17806;SDS011;9027;48.938;9.182;2022-11-20T03:21:46;16.27;;;10.87;;
17806;SDS011;9027;48.938;9.182;2022-11-20T03:23:18;16.60;;;11.70;;
17806;SDS011;9027;48.938;9.182;2022-11-20T03:24:50;15.07;;;10.27;;
17806;SDS011;9027;48.938;9.182;2022-11-20T03:26:24;17.40;;;11.27;;
17806;SDS011;9027;48.938;9.182;2022-11-20T03:27:57;15.97;;;11.20;;
17806;SDS011;9027;48.938;9.182;2022-11-20T03:29:28;14.30;;;10.73;;
17806;SDS011;9027;48.938;9.182;2022-11-20T03:31:04;16.07;;;10.57;;
17806;SDS011;9027;48.938;9.182;2022-11-20T03:32:37;15.43;;;10.73;;
17806;SDS011;9027;48.938;9.182;2022-11-20T03:34:09;15.13;;;10.03;;
17806;SDS011;9027;48.938;9.182;2022-11-20T03:35:42;14.67;;;10.57;;
17806;SDS011;9027;48.938;9.182;2022-11-20T03:37:14;16.97;;;10.70;;
17806;SDS011;9027;48.938;9.182;2022-11-20T03:38:46;14.87;;;10.50;;
17806;SDS011;9027;48.938;9.182;2022-11-20T03:40:18;13.13;;;9.73;;
17806;SDS011;9027;48.938;9.182;2022-11-20T03:41:50;15.63;;;9.73;;
17806;SDS011;9027;48.938;9.182;2022-11-20T03:43:22;14.60;;;9.53;;
17806;SDS011;9027;48.938;9.182;2022-11-20T03:44:53;12.17;;;9.40;;
17806;SDS011;9027;48.938;9.182;2022-11-20T03:46:25;13.07;;;10.17;;
17806;SDS011;9027;48.938;9.182;2022-11-20T03:47:58;14.10;;;9.97;;
17806;SDS011;9027;48.938;9.182;2022-11-20T03:49:28;16.77;;;10.27;;
17806;SDS011;9027;48.938;9.182;2022-11-20T03:51:07;12.97;;;9.33;;
17806;SDS011;9027;48.938;9.182;2022-11-20T03:52:39;13.30;;;9.47;;
17806;SDS011;9027;48.938;9.182;2022-11-20T03:54:11;13.70;;;10.47;;
17806;SDS011;9027;48.938;9.182;2022-11-20T03:55:43;13.27;;;9.47;;
17806;SDS011;9027;48.938;9.182;2022-11-20T03:57:15;15.83;;;9.10;;
17806;SDS011;9027;48.938;9.182;2022-11-20T03:58:47;10.93;;;7.80;;
17806;SDS011;9027;48.938;9.182;2022-11-20T04:00:19;7.07;;;5.93;;
17806;SDS011;9027;48.938;9.182;2022-11-20T04:01:51;8.17;;;5.90;;
17806;SDS011;9027;48.938;9.182;2022-11-20T04:03:22;7.10;;;5.43;;
17806;SDS011;9027;48.938;9.182;2022-11-20T04:04:54;6.37;;;5.20;;
17806;SDS011;9027;48.938;9.182;2022-11-20T04:06:26;7.80;;;4.87;;
17806;SDS011;9027;48.938;9.182;2022-11-20T04:08:00;7.13;;;4.43;;
17806;SDS011;9027;48.938;9.182;2022-11-20T04:09:32;8.50;;;5.93;;
17806;SDS011;9027;48.938;9.182;2022-11-20T04:11:10;4.93;;;4.03;;
17806;SDS011;9027;48.938;9.182;2022-11-20T04:12:44;5.23;;;3.63;;
17806;SDS011;9027;48.938;9.182;2022-11-20T04:14:16;6.60;;;4.17;;
17806;SDS011;9027;48.938;9.182;2022-11-20T04:15:48;4.57;;;3.40;;
17806;SDS011;9027;48.938;9.182;2022-11-20T04:17:19;4.40;;;3.27;;
17806;SDS011;9027;48.938;9.182;2022-11-20T04:18:51;4.07;;;2.50;;
17806;SDS011;9027;48.938;9.182;2022-11-20T04:20:24;4.13;;;3.37;;
17806;SDS011;9027;48.938;9.182;2022-11-20T04:21:55;5.00;;;3.33;;
17806;SDS011;9027;48.938;9.182;2022-11-20T04:23:28;4.03;;;3.10;;
17806;SDS011;9027;48.938;9.182;2022-11-20T04:25:00;3.83;;;2.90;;
17806;SDS011;9027;48.938;9.182;2022-11-20T04:26:32;4.63;;;3.03;;
17806;SDS011;9027;48.938;9.182;2022-11-20T04:28:04;2.90;;;2.60;;
17806;SDS011;9027;48.938;9.182;2022-11-20T04:29:36;5.23;;;2.77;;
17806;SDS011;9027;48.938;9.182;2022-11-20T04:31:09;4.83;;;2.80;;
17806;SDS011;9027;48.938;9.182;2022-11-20T04:32:42;2.63;;;2.43;;
17806;SDS011;9027;48.938;9.182;2022-11-20T04:34:13;3.17;;;2.57;;
17806;SDS011;9027;48.938;9.182;2022-11-20T04:35:45;4.40;;;2.80;;
17806;SDS011;9027;48.938;9.182;2022-11-20T04:37:18;3.97;;;2.70;;
17806;SDS011;9027;48.938;9.182;2022-11-20T04:38:50;3.07;;;2.57;;
17806;SDS011;9027;48.938;9.182;2022-11-20T04:40:23;6.77;;;2.80;;
17806;SDS011;9027;48.938;9.182;2022-11-20T04:41:55;3.33;;;2.90;;
17806;SDS011;9027;48.938;9.182;2022-11-20T04:43:45;3.83;;;2.97;;
17806;SDS011;9027;48.938;9.182;2022-11-20T04:45:18;3.53;;;2.90;;
17806;SDS011;9027;48.938;9.182;2022-11-20T04:46:49;4.03;;;2.93;;
17806;SDS011;9027;48.938;9.182;2022-11-20T04:48:21;3.10;;;2.47;;
17806;SDS011;9027;48.938;9.182;2022-11-20T04:49:53;3.10;;;2.53;;
17806;SDS011;9027;48.938;9.182;2022-11-20T04:51:25;5.10;;;2.70;;
17806;SDS011;9027;48.938;9.182;2022-11-20T04:52:57;3.93;;;2.80;;
17806;SDS011;9027;48.938;9.182;2022-11-20T04:54:29;3.53;;;2.67;;
17806;SDS011;9027;48.938;9.182;2022-11-20T04:56:00;4.67;;;3.13;;
17806;SDS011;9027;48.938;9.182;2022-11-20T04:57:32;4.80;;;3.07;;
17806;SDS011;9027;48.938;9.182;2022-11-20T04:59:05;3.23;;;2.93;;
17806;SDS011;9027;48.938;9.182;2022-11-20T05:00:37;3.47;;;3.07;;
17806;SDS011;9027;48.938;9.182;2022-11-20T05:02:08;4.73;;;2.97;;
17806;SDS011;9027;48.938;9.182;2022-11-20T05:03:41;4.53;;;2.97;;
17806;SDS011;9027;48.938;9.182;2022-11-20T05:05:14;3.90;;;3.40;;
17806;SDS011;9027;48.938;9.182;2022-11-20T05:06:46;3.50;;;3.10;;
17806;SDS011;9027;48.938;9.182;2022-11-20T05:08:18;3.73;;;3.13;;
17806;SDS011;9027;48.938;9.182;2022-11-20T05:09:49;4.13;;;2.70;;
17806;SDS011;9027;48.938;9.182;2022-11-20T05:11:21;4.40;;;3.13;;
17806;SDS011;9027;48.938;9.182;2022-11-20T05:12:53;3.33;;;3.03;;
17806;SDS011;9027;48.938;9.182;2022-11-20T05:14:25;3.83;;;3.20;;
17806;SDS011;9027;48.938;9.182;2022-11-20T05:16:00;3.63;;;2.97;;
17806;SDS011;9027;48.938;9.182;2022-11-20T05:17:33;4.80;;;3.23;;
17806;SDS011;9027;48.938;9.182;2022-11-20T05:19:05;3.50;;;3.20;;
17806;SDS011;9027;48.938;9.182;2022-11-20T05:20:36;3.83;;;3.10;;
17806;SDS011;9027;48.938;9.182;2022-11-20T05:22:07;3.90;;;3.13;;
17806;SDS011;9027;48.938;9.182;2022-11-20T05:23:40;5.37;;;3.30;;
17806;SDS011;9027;48.938;9.182;2022-11-20T05:25:12;5.60;;;2.93;;
17806;SDS011;9027;48.938;9.182;2022-11-20T05:26:44;3.30;;;3.00;;
17806;SDS011;9027;48.938;9.182;2022-11-20T05:28:16;4.20;;;3.40;;
17806;SDS011;9027;48.938;9.182;2022-11-20T05:29:48;5.20;;;3.10;;
17806;SDS011;9027;48.938;9.182;2022-11-20T05:31:21;3.67;;;3.07;;
17806;SDS011;9027;48.938;9.182;2022-11-20T05:32:54;7.67;;;3.57;;
17806;SDS011;9027;48.938;9.182;2022-11-20T05:34:26;4.40;;;3.20;;
17806;SDS011;9027;48.938;9.182;2022-11-20T05:35:58;4.23;;;3.30;;
17806;SDS011;9027;48.938;9.182;2022-11-20T05:37:29;5.10;;;3.83;;
17806;SDS011;9027;48.938;9.182;2022-11-20T05:39:01;5.27;;;3.07;;
17806;SDS011;9027;48.938;9.182;2022-11-20T05:40:33;3.67;;;3.33;;
17806;SDS011;9027;48.938;9.182;2022-11-20T05:42:04;3.93;;;3.20;;
17806;SDS011;9027;48.938;9.182;2022-11-20T05:43:53;4.20;;;3.53;;
17806;SDS011;9027;48.938;9.182;2022-11-20T05:45:28;3.50;;;2.70;;
17806;SDS011;9027;48.938;9.182;2022-11-20T05:47:00;3.60;;;2.73;;
17806;SDS011;9027;48.938;9.182;2022-11-20T05:48:31;3.80;;;3.10;;
17806;SDS011;9027;48.938;9.182;2022-11-20T05:50:03;3.80;;;3.30;;
17806;SDS011;9027;48.938;9.182;2022-11-20T05:51:36;5.97;;;3.10;;
17806;SDS011;9027;48.938;9.182;2022-11-20T05:53:08;3.83;;;3.07;;
17806;SDS011;9027;48.938;9.182;2022-11-20T05:54:39;3.63;;;3.10;;
17806;SDS011;9027;48.938;9.182;2022-11-20T05:56:11;5.10;;;2.73;;
17806;SDS011;9027;48.938;9.182;2022-11-20T05:57:45;4.37;;;3.10;;
17806;SDS011;9027;48.938;9.182;2022-11-20T05:59:16;3.53;;;3.00;;
17806;SDS011;9027;48.938;9.182;2022-11-20T06:00:50;3.90;;;2.97;;
17806;SDS011;9027;48.938;9.182;2022-11-20T06:02:21;4.07;;;2.93;;
17806;SDS011;9027;48.938;9.182;2022-11-20T06:03:53;3.40;;;3.00;;
17806;SDS011;9027;48.938;9.182;2022-11-20T06:05:25;4.13;;;2.57;;
17806;SDS011;9027;48.938;9.182;2022-11-20T06:06:57;3.53;;;2.93;;
17806;SDS011;9027;48.938;9.182;2022-11-20T06:08:29;3.27;;;2.83;;
17806;SDS011;9027;48.938;9.182;2022-11-20T06:10:01;3.27;;;2.70;;
17806;SDS011;9027;48.938;9.182;2022-11-20T06:11:33;4.13;;;2.33;;
17806;SDS011;9027;48.938;9.182;2022-11-20T06:13:05;3.67;;;2.97;;
17806;SDS011;9027;48.938;9.182;2022-11-20T06:14:37;4.13;;;2.63;;
17806;SDS011;9027;48.938;9.182;2022-11-20T06:16:11;5.00;;;2.83;;
17806;SDS011;9027;48.938;9.182;2022-11-20T06:17:44;3.20;;;2.73;;
17806;SDS011;9027;48.938;9.182;2022-11-20T06:19:16;4.17;;;2.90;;
17806;SDS011;9027;48.938;9.182;2022-11-20T06:20:47;7.50;;;3.13;;
17806;SDS011;9027;48.938;9.182;2022-11-20T06:22:19;4.60;;;3.10;;
17806;SDS011;9027;48.938;9.182;2022-11-20T06:23:51;3.63;;;2.97;;
17806;SDS011;9027;48.938;9.182;2022-11-20T06:25:24;3.40;;;3.10;;
17806;SDS011;9027;48.938;9.182;2022-11-20T06:26:56;3.10;;;2.53;;
17806;SDS011;9027;48.938;9.182;2022-11-20T06:28:28;3.13;;;2.63;;
17806;SDS011;9027;48.938;9.182;2022-11-20T06:30:00;4.50;;;3.07;;
17806;SDS011;9027;48.938;9.182;2022-11-20T06:31:32;3.80;;;2.80;;
17806;SDS011;9027;48.938;9.182;2022-11-20T06:33:05;3.73;;;2.80;;
17806;SDS011;9027;48.938;9.182;2022-11-20T06:34:36;4.33;;;2.60;;
17806;SDS011;9027;48.938;9.182;2022-11-20T06:36:09;4.40;;;3.00;;
17806;SDS011;9027;48.938;9.182;2022-11-20T06:37:41;4.33;;;3.03;;
17806;SDS011;9027;48.938;9.182;2022-11-20T06:39:13;4.93;;;2.97;;
17806;SDS011;9027;48.938;9.182;2022-11-20T06:40:45;4.77;;;3.13;;
17806;SDS011;9027;48.938;9.182;2022-11-20T06:42:16;2.83;;;2.57;;
17806;SDS011;9027;48.938;9.182;2022-11-20T06:43:48;3.40;;;2.73;;
17806;SDS011;9027;48.938;9.182;2022-11-20T06:45:20;4.07;;;2.50;;
17806;SDS011;9027;48.938;9.182;2022-11-20T06:46:54;3.23;;;2.90;;
17806;SDS011;9027;48.938;9.182;2022-11-20T06:48:26;6.23;;;2.63;;
17806;SDS011;9027;48.938;9.182;2022-11-20T06:49:58;3.70;;;2.83;;
17806;SDS011;9027;48.938;9.182;2022-11-20T06:51:30;4.87;;;2.80;;
17806;SDS011;9027;48.938;9.182;2022-11-20T06:53:02;3.23;;;2.93;;
17806;SDS011;9027;48.938;9.182;2022-11-20T06:54:34;3.63;;;2.90;;
17806;SDS011;9027;48.938;9.182;2022-11-20T06:56:06;4.80;;;2.90;;
17806;SDS011;9027;48.938;9.182;2022-11-20T06:57:38;3.53;;;3.17;;
17806;SDS011;9027;48.938;9.182;2022-11-20T06:59:10;3.17;;;2.80;;
17806;SDS011;9027;48.938;9.182;2022-11-20T07:00:42;3.50;;;2.63;;
17806;SDS011;9027;48.938;9.182;2022-11-20T07:02:16;3.27;;;2.97;;
17806;SDS011;9027;48.938;9.182;2022-11-20T07:03:48;4.00;;;3.23;;
17806;SDS011;9027;48.938;9.182;2022-11-20T07:05:21;5.37;;;3.30;;
17806;SDS011;9027;48.938;9.182;2022-11-20T07:06:53;4.13;;;3.23;;
17806;SDS011;9027;48.938;9.182;2022-11-20T07:08:25;4.50;;;2.57;;
17806;SDS011;9027;48.938;9.182;2022-11-20T07:09:57;4.07;;;3.50;;
17806;SDS011;9027;48.938;9.182;2022-11-20T07:11:29;4.27;;;3.20;;
17806;SDS011;9027;48.938;9.182;2022-11-20T07:13:01;3.90;;;3.37;;
17806;SDS011;9027;48.938;9.182;2022-11-20T07:14:33;5.77;;;3.43;;
17806;SDS011;9027;48.938;9.182;2022-11-20T07:16:06;4.20;;;2.90;;
17806;SDS011;9027;48.938;9.182;2022-11-20T07:17:40;6.27;;;2.70;;
17806;SDS011;9027;48.938;9.182;2022-11-20T07:19:11;2.90;;;2.57;;
17806;SDS011;9027;48.938;9.182;2022-11-20T07:20:43;3.37;;;2.30;;
17806;SDS011;9027;48.938;9.182;2022-11-20T07:22:15;4.73;;;3.00;;
17806;SDS011;9027;48.938;9.182;2022-11-20T07:23:47;3.40;;;2.60;;
17806;SDS011;9027;48.938;9.182;2022-11-20T07:25:18;3.50;;;2.53;;
17806;SDS011;9027;48.938;9.182;2022-11-20T07:26:50;4.67;;;2.63;;
17806;SDS011;9027;48.938;9.182;2022-11-20T07:28:22;3.43;;;2.70;;
17806;SDS011;9027;48.938;9.182;2022-11-20T07:29:54;5.60;;;3.07;;
17806;SDS011;9027;48.938;9.182;2022-11-20T07:31:26;3.33;;;2.50;;
17806;SDS011;9027;48.938;9.182;2022-11-20T07:32:59;3.27;;;2.20;;
17806;SDS011;9027;48.938;9.182;2022-11-20T07:34:31;3.97;;;2.57;;
17806;SDS011;9027;48.938;9.182;2022-11-20T07:36:04;4.43;;;3.10;;
17806;SDS011;9027;48.938;9.182;2022-11-20T07:37:36;3.83;;;2.80;;
17806;SDS011;9027;48.938;9.182;2022-11-20T07:39:08;2.67;;;2.37;;
17806;SDS011;9027;48.938;9.182;2022-11-20T07:40:40;2.47;;;2.27;;
17806;SDS011;9027;48.938;9.182;2022-11-20T07:42:12;3.30;;;2.60;;
17806;SDS011;9027;48.938;9.182;2022-11-20T07:43:44;4.63;;;3.80;;
17806;SDS011;9027;48.938;9.182;2022-11-20T07:45:16;3.90;;;3.40;;
17806;SDS011;9027;48.938;9.182;2022-11-20T07:46:48;3.77;;;3.30;;
17806;SDS011;9027;48.938;9.182;2022-11-20T07:48:21;3.80;;;3.30;;
17806;SDS011;9027;48.938;9.182;2022-11-20T07:49:53;4.20;;;3.77;;
17806;SDS011;9027;48.938;9.182;2022-11-20T07:51:25;5.67;;;3.77;;
17806;SDS011;9027;48.938;9.182;2022-11-20T07:53:01;4.43;;;3.57;;
17806;SDS011;9027;48.938;9.182;2022-11-20T07:54:33;3.90;;;3.10;;
17806;SDS011;9027;48.938;9.182;2022-11-20T07:56:06;4.27;;;3.67;;
17806;SDS011;9027;48.938;9.182;2022-11-20T07:57:38;4.40;;;3.47;;
17806;SDS011;9027;48.938;9.182;2022-11-20T07:59:10;4.40;;;2.87;;
17806;SDS011;9027;48.938;9.182;2022-11-20T08:00:42;4.70;;;4.03;;
17806;SDS011;9027;48.938;9.182;2022-11-20T08:02:14;4.00;;;3.27;;
17806;SDS011;9027;48.938;9.182;2022-11-20T08:03:47;4.63;;;3.30;;
17806;SDS011;9027;48.938;9.182;2022-11-20T08:05:19;3.40;;;3.10;;
17806;SDS011;9027;48.938;9.182;2022-11-20T08:06:51;4.53;;;3.30;;
17806;SDS011;9027;48.938;9.182;2022-11-20T08:08:23;5.77;;;2.73;;
17806;SDS011;9027;48.938;9.182;2022-11-20T08:09:56;4.40;;;3.00;;
17806;SDS011;9027;48.938;9.182;2022-11-20T08:11:28;2.90;;;2.70;;
17806;SDS011;9027;48.938;9.182;2022-11-20T08:13:17;4.37;;;2.63;;
17806;SDS011;9027;48.938;9.182;2022-11-20T08:15:07;5.00;;;2.80;;
17806;SDS011;9027;48.938;9.182;2022-11-20T08:16:40;5.47;;;2.83;;
17806;SDS011;9027;48.938;9.182;2022-11-20T08:18:14;3.13;;;2.83;;
17806;SDS011;9027;48.938;9.182;2022-11-20T08:19:48;3.80;;;2.47;;
17806;SDS011;9027;48.938;9.182;2022-11-20T08:21:20;4.97;;;2.67;;
17806;SDS011;9027;48.938;9.182;2022-11-20T08:22:56;3.13;;;2.20;;
17806;SDS011;9027;48.938;9.182;2022-11-20T08:24:29;3.33;;;2.50;;
17806;SDS011;9027;48.938;9.182;2022-11-20T08:26:01;2.43;;;2.13;;
17806;SDS011;9027;48.938;9.182;2022-11-20T08:27:33;4.67;;;3.60;;
17806;SDS011;9027;48.938;9.182;2022-11-20T08:29:05;5.83;;;5.23;;
17806;SDS011;9027;48.938;9.182;2022-11-20T08:30:37;10.00;;;6.60;;
17806;SDS011;9027;48.938;9.182;2022-11-20T08:32:09;3.33;;;2.60;;
17806;SDS011;9027;48.938;9.182;2022-11-20T08:33:41;7.50;;;5.83;;
17806;SDS011;9027;48.938;9.182;2022-11-20T08:35:15;3.77;;;3.17;;
17806;SDS011;9027;48.938;9.182;2022-11-20T08:36:47;2.13;;;1.90;;
17806;SDS011;9027;48.938;9.182;2022-11-20T08:38:18;3.30;;;2.10;;
17806;SDS011;9027;48.938;9.182;2022-11-20T08:39:50;5.23;;;4.00;;
17806;SDS011;9027;48.938;9.182;2022-11-20T08:41:23;4.30;;;3.37;;
17806;SDS011;9027;48.938;9.182;2022-11-20T08:42:55;2.00;;;1.70;;
17806;SDS011;9027;48.938;9.182;2022-11-20T08:44:27;4.83;;;1.60;;
17806;SDS011;9027;48.938;9.182;2022-11-20T08:45:59;1.90;;;1.70;;
17806;SDS011;9027;48.938;9.182;2022-11-20T08:47:31;1.60;;;1.43;;
17806;SDS011;9027;48.938;9.182;2022-11-20T08:49:03;2.10;;;1.90;;
17806;SDS011;9027;48.938;9.182;2022-11-20T08:50:37;3.10;;;1.80;;
17806;SDS011;9027;48.938;9.182;2022-11-20T08:52:09;2.30;;;1.57;;
17806;SDS011;9027;48.938;9.182;2022-11-20T08:53:41;1.93;;;1.57;;
17806;SDS011;9027;48.938;9.182;2022-11-20T08:55:13;2.70;;;1.50;;
17806;SDS011;9027;48.938;9.182;2022-11-20T08:56:45;3.43;;;1.60;;
17806;SDS011;9027;48.938;9.182;2022-11-20T08:58:17;1.70;;;1.60;;
17806;SDS011;9027;48.938;9.182;2022-11-20T08:59:49;1.53;;;1.20;;
17806;SDS011;9027;48.938;9.182;2022-11-20T09:01:21;1.67;;;1.20;;
17806;SDS011;9027;48.938;9.182;2022-11-20T09:02:54;1.53;;;1.03;;
17806;SDS011;9027;48.938;9.182;2022-11-20T09:04:26;1.80;;;1.70;;
17806;SDS011;9027;48.938;9.182;2022-11-20T09:06:00;2.80;;;1.63;;
17806;SDS011;9027;48.938;9.182;2022-11-20T09:07:33;1.60;;;1.40;;
17806;SDS011;9027;48.938;9.182;2022-11-20T09:09:05;1.90;;;1.40;;
17806;SDS011;9027;48.938;9.182;2022-11-20T09:10:37;1.40;;;0.97;;
17806;SDS011;9027;48.938;9.182;2022-11-20T09:12:10;1.23;;;1.13;;
17806;SDS011;9027;48.938;9.182;2022-11-20T09:13:41;1.20;;;1.10;;
17806;SDS011;9027;48.938;9.182;2022-11-20T09:15:13;2.67;;;1.40;;
17806;SDS011;9027;48.938;9.182;2022-11-20T09:16:46;1.60;;;1.30;;
17806;SDS011;9027;48.938;9.182;2022-11-20T09:18:18;1.60;;;1.50;;
17806;SDS011;9027;48.938;9.182;2022-11-20T09:19:50;2.20;;;1.00;;
17806;SDS011;9027;48.938;9.182;2022-11-20T09:21:23;1.23;;;1.10;;
17806;SDS011;9027;48.938;9.182;2022-11-20T09:22:55;1.40;;;1.30;;